Time;durP1;ratioP1;P1;durP2;ratioP2;P2;SDS_P1;SDS_P2;PMS_P1;PMS_P2;Temp;Humidity;BMP_temperature;BMP_pressure;BME280_temperature;BME280_humidity;BME280_pressure;Samples;Min_cycle;Max_cycle;Signal;HPM_P1;HPM_P2
2022/06/18 00:01:40;;;;;;;;;;;;;;;23.01;44.64;101578.84;5066014;28;19917;-90
2022/06/18 00:04:07;;;;;;;;;;;;;;;22.98;46.63;101579.13;5061568;28;19916;-89
2022/06/18 00:06:35;;;;;;;;;;;;;;;22.98;46.80;101579.13;5069211;28;19912;-89
2022/06/18 00:09:01;;;;;;;;;;;;;;;22.94;45.56;101577.69;5070309;28;19904;-89
2022/06/18 00:14:11;;;;;;;;;;;;;;;22.91;46.70;101577.13;5058830;28;19928;-89
2022/06/18 00:16:36;;;;;;;;;;;;;;;22.89;46.13;101566.38;5065065;28;19928;-89
2022/06/18 00:19:02;;;;;;;;;;;;;;;22.86;46.49;101569.38;5085516;28;19924;-88
2022/06/18 00:21:27;;;;;;;;;;;;;;;22.84;47.21;101569.53;5074984;28;19921;-89
2022/06/18 00:23:52;;;;;;;;;;;;;;;22.81;47.17;101569.78;5080287;28;19940;-88
2022/06/18 00:26:17;;;;;;;;;;;;;;;22.80;45.36;101570.78;5071498;28;19927;-89
2022/06/18 00:28:43;;;;;;;;;;;;;;;22.79;48.77;101571.81;5061667;28;19924;-88
2022/06/18 00:31:08;;;;;;;;;;;;;;;22.75;46.87;101573.06;5055902;28;20370;-89
2022/06/18 00:33:39;;;;;;;;;;;;;;;22.68;48.27;101562.91;5056754;28;19920;-89
2022/06/18 00:36:05;;;;;;;;;;;;;;;22.65;48.69;101568.59;5045725;28;19913;-88
2022/06/18 00:38:32;;;;;;;;;;;;;;;22.59;48.35;101562.75;5053579;28;20007;-89
2022/06/18 00:40:58;;;;;;;;;;;;;;;22.55;48.55;101566.72;5073026;28;19978;-89
2022/06/18 00:43:39;;;;;;;;;;;;;;;22.53;46.85;101557.00;5062843;28;19948;-89
2022/06/18 00:46:10;;;;;;;;;;;;;;;22.48;48.21;101552.00;5048451;28;19916;-89
2022/06/18 00:48:35;;;;;;;;;;;;;;;22.45;47.93;101555.00;5047562;28;19924;-88
2022/06/18 00:51:09;;;;;;;;;;;;;;;22.42;48.05;101555.28;5040420;28;19920;-90
2022/06/18 00:53:42;;;;;;;;;;;;;;;22.37;48.51;101550.25;5053125;28;19905;-88
2022/06/18 00:56:07;;;;;;;;;;;;;;;22.33;48.66;101559.66;5054943;28;19924;-89
2022/06/18 00:58:41;;;;;;;;;;;;;;;22.30;48.81;101553.66;5049644;28;19925;-88
2022/06/18 01:01:12;;;;;;;;;;;;;;;22.26;49.30;101557.63;5045449;28;19920;-89
2022/06/18 01:03:38;;;;;;;;;;;;;;;22.22;47.27;101548.91;5045513;28;19982;-89
2022/06/18 01:06:10;;;;;;;;;;;;;;;22.19;49.21;101560.03;5059835;28;19921;-89
2022/06/18 01:08:35;;;;;;;;;;;;;;;22.15;48.54;101561.28;5054369;28;20019;-87
2022/06/18 01:11:01;;;;;;;;;;;;;;;22.12;49.10;101553.41;5065336;28;19956;-89
2022/06/18 01:13:30;;;;;;;;;;;;;;;22.08;50.66;101554.69;5049742;28;19923;-89
2022/06/18 01:15:56;;;;;;;;;;;;;;;22.06;48.52;101556.66;5053737;28;20466;-89
2022/06/18 01:18:22;;;;;;;;;;;;;;;22.03;48.91;101544.25;5051474;28;19928;-88
2022/06/18 01:21:07;;;;;;;;;;;;;;;22.00;50.36;101546.38;5057373;28;19928;-90
2022/06/18 01:23:42;;;;;;;;;;;;;;;21.95;50.03;101543.22;5043240;28;19921;-89
2022/06/18 01:26:08;;;;;;;;;;;;;;;21.93;52.18;101537.91;5043414;28;19996;-89
2022/06/18 01:28:34;;;;;;;;;;;;;;;21.89;51.47;101533.75;5053969;28;20015;-89
2022/06/18 01:31:00;;;;;;;;;;;;;;;21.85;49.01;101538.56;5061222;28;19975;-89
2022/06/18 01:33:25;;;;;;;;;;;;;;;21.80;50.57;101546.25;5058389;28;19917;-89
2022/06/18 01:35:52;;;;;;;;;;;;;;;21.77;51.45;101543.78;5057845;28;19924;-89
2022/06/18 01:38:17;;;;;;;;;;;;;;;21.77;50.93;101543.78;5054533;28;19962;-89
2022/06/18 01:40:55;;;;;;;;;;;;;;;21.73;51.20;101541.50;5054856;28;19918;-89
2022/06/18 01:43:23;;;;;;;;;;;;;;;21.72;52.08;101540.63;5056339;28;20374;-89
2022/06/18 01:45:52;;;;;;;;;;;;;;;21.70;51.13;101537.22;5048729;28;19920;-90
2022/06/18 01:48:23;;;;;;;;;;;;;;;21.67;51.03;101540.19;5045149;28;19917;-89
2022/06/18 01:51:00;;;;;;;;;;;;;;;21.62;50.61;101540.59;5051511;28;19916;-89
2022/06/18 01:53:52;;;;;;;;;;;;;;;21.60;51.59;101534.44;5063883;28;19917;-89
2022/06/18 01:56:18;;;;;;;;;;;;;;;21.58;51.94;101535.56;5047316;28;19917;-90
2022/06/18 01:58:54;;;;;;;;;;;;;;;21.52;51.11;101536.09;5052824;28;19959;-89
2022/06/18 02:01:27;;;;;;;;;;;;;;;21.48;51.68;101531.91;5055180;28;19916;-89
2022/06/18 02:03:54;;;;;;;;;;;;;;;21.46;51.89;101536.63;5055893;28;19932;-89
2022/06/18 02:06:20;;;;;;;;;;;;;;;21.43;53.32;101534.16;5054457;28;20012;-89
2022/06/18 02:08:45;;;;;;;;;;;;;;;21.38;52.54;101531.88;5057625;28;19927;-90
2022/06/18 02:11:12;;;;;;;;;;;;;;;21.35;51.85;101532.97;5059962;28;19962;-87
2022/06/18 02:13:40;;;;;;;;;;;;;;;21.34;52.68;101530.41;5057558;28;19989;-89
2022/06/18 02:16:09;;;;;;;;;;;;;;;21.31;52.08;101526.06;5055243;28;20271;-88
2022/06/18 02:18:35;;;;;;;;;;;;;;;21.29;51.48;101532.63;5059919;28;19916;-88
2022/06/18 02:21:05;;;;;;;;;;;;;;;21.26;52.52;101533.72;5062035;28;19912;-88
2022/06/18 02:23:31;;;;;;;;;;;;;;;21.23;52.97;101528.56;5041957;28;20286;-88
2022/06/18 02:25:56;;;;;;;;;;;;;;;21.19;53.41;101531.66;5048431;28;19917;-88
2022/06/18 02:28:28;;;;;;;;;;;;;;;21.15;52.11;101525.66;5047291;28;19931;-88
2022/06/18 02:30:57;;;;;;;;;;;;;;;21.12;53.29;101531.34;5053454;28;19920;-89
2022/06/18 02:33:29;;;;;;;;;;;;;;;21.07;54.38;101529.03;5052341;28;20024;-89
2022/06/18 02:35:55;;;;;;;;;;;;;;;21.04;54.50;101537.41;5059910;28;20329;-87
2022/06/18 02:38:22;;;;;;;;;;;;;;;21.02;52.28;101533.09;5066719;28;19971;-89
2022/06/18 02:40:47;;;;;;;;;;;;;;;21.00;53.11;101529.66;5053428;28;19911;-89
2022/06/18 02:43:13;;;;;;;;;;;;;;;20.96;53.79;101531.78;5052615;28;20011;-89
2022/06/18 02:45:38;;;;;;;;;;;;;;;20.93;53.84;101532.03;5051955;28;19956;-89
2022/06/18 02:48:04;;;;;;;;;;;;;;;20.89;54.00;101526.00;5054199;28;20365;-90
2022/06/18 02:50:31;;;;;;;;;;;;;;;20.88;54.40;101531.56;5058667;28;19920;-89
2022/06/18 02:53:00;;;;;;;;;;;;;;;20.85;53.51;101524.53;5055621;28;19921;-88
2022/06/18 02:55:25;;;;;;;;;;;;;;;20.82;53.43;101527.53;5059375;28;20294;-89
2022/06/18 02:57:52;;;;;;;;;;;;;;;20.80;54.35;101529.47;5053238;28;19904;-89
2022/06/18 03:00:18;;;;;;;;;;;;;;;20.79;55.43;101529.63;5064032;28;20294;-89
2022/06/18 03:02:43;;;;;;;;;;;;;;;20.75;54.03;101525.44;5055620;28;19924;-89
2022/06/18 03:05:16;;;;;;;;;;;;;;;20.73;52.73;101528.25;5056564;28;20301;-89
2022/06/18 03:07:42;;;;;;;;;;;;;;;20.71;54.42;101524.84;5045626;28;19984;-88
2022/06/18 03:12:51;;;;;;;;;;;;;;;20.68;54.42;101530.50;5052481;28;19923;-89
2022/06/18 03:15:17;;;;;;;;;;;;;;;20.67;53.73;101527.94;5063369;28;19916;-89
2022/06/18 03:17:42;;;;;;;;;;;;;;;20.66;54.65;101535.19;5072133;28;19913;-90
2022/06/18 03:20:09;;;;;;;;;;;;;;;20.65;55.89;101530.78;5075377;28;20011;-90
2022/06/18 03:22:34;;;;;;;;;;;;;;;20.63;55.94;101535.44;5068818;28;19916;-89
2022/06/18 03:25:00;;;;;;;;;;;;;;;20.61;55.72;101540.97;5068665;28;20412;-90
2022/06/18 03:27:25;;;;;;;;;;;;;;;20.59;55.93;101542.06;5067692;28;19917;-90
2022/06/18 03:29:52;;;;;;;;;;;;;;;20.58;57.40;101534.97;5072171;28;19932;-90
2022/06/18 03:32:17;;;;;;;;;;;;;;;20.56;55.25;101535.06;5066454;28;19917;-91
2022/06/18 03:34:43;;;;;;;;;;;;;;;20.55;56.58;101538.75;5056060;28;19979;-89
2022/06/18 03:37:09;;;;;;;;;;;;;;;20.54;54.91;101542.47;5060449;28;19991;-90
2022/06/18 03:39:34;;;;;;;;;;;;;;;20.54;57.94;101536.19;5071135;28;19939;-91
2022/06/18 03:41:59;;;;;;;;;;;;;;;20.54;56.54;101542.47;5066509;28;19940;-90
2022/06/18 03:44:25;;;;;;;;;;;;;;;20.55;56.80;101537.91;5065436;28;19943;-90
2022/06/18 03:46:50;;;;;;;;;;;;;;;20.53;55.43;101535.34;5066416;28;19913;-89
2022/06/18 03:49:27;;;;;;;;;;;;;;;20.53;55.36;101535.34;5072046;28;19920;-90
2022/06/18 03:51:53;;;;;;;;;;;;;;;20.53;55.24;101534.47;5066647;28;19913;-89
2022/06/18 03:54:18;;;;;;;;;;;;;;;20.52;54.62;101540.84;5071164;28;20146;-90
2022/06/18 03:56:44;;;;;;;;;;;;;;;20.51;56.38;101533.72;5086699;28;19908;-89
2022/06/18 03:59:10;;;;;;;;;;;;;;;20.51;56.72;101528.31;5076459;28;20352;-90
2022/06/18 04:01:40;;;;;;;;;;;;;;;20.52;56.43;101530.88;5052994;28;19928;-90
2022/06/18 04:04:05;;;;;;;;;;;;;;;20.52;56.17;101517.38;5044994;28;19928;-90
2022/06/18 04:06:30;;;;;;;;;;;;;;;20.52;56.84;101524.63;5047091;28;19925;-90
2022/06/18 04:08:55;;;;;;;;;;;;;;;20.54;57.00;101517.25;5049778;28;19952;-90
2022/06/18 04:11:21;;;;;;;;;;;;;;;20.56;58.92;101518.84;5042635;28;19920;-89
2022/06/18 04:13:46;;;;;;;;;;;;;;;20.56;57.02;101515.28;5052534;28;19956;-90
2022/06/18 04:16:11;;;;;;;;;;;;;;;20.59;57.18;101518.59;5071093;28;20639;-90
2022/06/18 04:18:37;;;;;;;;;;;;;;;20.62;56.85;101512.09;5054699;28;19921;-90
2022/06/18 04:21:02;;;;;;;;;;;;;;;20.63;57.18;101520.06;5056039;28;19923;-90
2022/06/18 04:23:27;;;;;;;;;;;;;;;20.66;55.14;101521.66;5057059;28;19967;-91
2022/06/18 04:25:53;;;;;;;;;;;;;;;20.69;56.53;101523.22;5055064;28;19967;-92
2022/06/18 04:28:18;;;;;;;;;;;;;;;20.71;57.72;101519.44;5052830;28;19927;-88
2022/06/18 04:30:44;;;;;;;;;;;;;;;20.72;58.28;101515.72;5060295;28;19924;-89
2022/06/18 04:33:10;;;;;;;;;;;;;;;20.72;56.00;101514.88;5040276;28;20015;-90
2022/06/18 04:35:36;;;;;;;;;;;;;;;20.74;55.20;101518.31;5051921;28;19917;-89
2022/06/18 04:38:02;;;;;;;;;;;;;;;20.78;57.18;101517.94;5053587;28;19986;-90
2022/06/18 04:40:34;;;;;;;;;;;;;;;20.82;57.35;101526.66;5051941;28;19928;-89
2022/06/18 04:43:03;;;;;;;;;;;;;;;20.84;53.87;101533.66;5047894;28;19964;-91
2022/06/18 04:45:29;;;;;;;;;;;;;;;20.87;55.15;101525.28;5051245;28;19913;-89
2022/06/18 04:47:55;;;;;;;;;;;;;;;20.91;57.49;101525.03;5042579;28;19917;-88
2022/06/18 04:50:22;;;;;;;;;;;;;;;20.93;55.87;101526.59;5055501;28;19976;-89
2022/06/18 04:52:47;;;;;;;;;;;;;;;20.96;57.48;101517.38;5063713;28;19917;-89
2022/06/18 04:55:12;;;;;;;;;;;;;;;20.97;57.21;101516.38;5058744;28;19923;-90
2022/06/18 04:57:37;;;;;;;;;;;;;;;21.00;57.02;101508.03;5054213;28;19916;-89
2022/06/18 05:00:06;;;;;;;;;;;;;;;21.05;57.69;101519.31;5049235;28;19955;-90
2022/06/18 05:02:33;;;;;;;;;;;;;;;21.11;57.81;101521.53;5047814;28;20112;-89
2022/06/18 05:04:58;;;;;;;;;;;;;;;21.17;57.00;101518.28;5058967;28;19921;-89
2022/06/18 05:07:23;;;;;;;;;;;;;;;21.23;57.08;101515.03;5046184;28;19905;-89
2022/06/18 05:09:48;;;;;;;;;;;;;;;21.27;55.82;101518.34;5053804;28;19917;-90
2022/06/18 05:12:14;;;;;;;;;;;;;;;21.34;56.10;101523.13;5058822;28;20124;-89
2022/06/18 05:14:39;;;;;;;;;;;;;;;21.41;56.87;101509.09;5053986;28;19921;-90
2022/06/18 05:17:05;;;;;;;;;;;;;;;21.48;57.12;101521.09;5054238;28;20378;-90
2022/06/18 05:19:31;;;;;;;;;;;;;;;21.51;56.74;101524.41;5057566;28;19924;-90
2022/06/18 05:21:57;;;;;;;;;;;;;;;21.58;56.31;101517.47;5056460;28;19989;-90
2022/06/18 05:24:22;;;;;;;;;;;;;;;21.64;56.57;101524.19;5055824;28;20393;-89
2022/06/18 05:26:48;;;;;;;;;;;;;;;21.69;55.64;101523.78;5050516;28;20022;-90
2022/06/18 05:29:15;;;;;;;;;;;;;;;21.76;55.12;101523.13;5064979;28;19928;-89
2022/06/18 05:31:40;;;;;;;;;;;;;;;21.80;55.82;101526.44;5053590;28;20084;-90
2022/06/18 05:34:05;;;;;;;;;;;;;;;21.86;54.87;101532.19;5050789;28;19921;-89
2022/06/18 05:36:30;;;;;;;;;;;;;;;21.94;56.85;101534.19;5052670;28;20090;-90
2022/06/18 05:38:57;;;;;;;;;;;;;;;22.01;55.66;101534.53;5051040;28;19925;-90
2022/06/18 05:41:22;;;;;;;;;;;;;;;22.09;56.27;101535.56;5054374;28;19920;-89
2022/06/18 05:43:47;;;;;;;;;;;;;;;22.19;56.09;101532.91;5049917;28;20015;-90
2022/06/18 05:46:13;;;;;;;;;;;;;;;22.31;54.58;101539.94;5050736;28;19916;-89
2022/06/18 05:48:38;;;;;;;;;;;;;;;22.42;54.79;101538.16;5055518;28;19924;-90
2022/06/18 05:51:05;;;;;;;;;;;;;;;22.48;54.58;101541.16;5054578;28;19921;-89
2022/06/18 05:53:30;;;;;;;;;;;;;;;22.56;54.06;101543.16;5048309;28;19917;-89
2022/06/18 05:55:55;;;;;;;;;;;;;;;22.63;54.39;101541.63;5049200;28;20100;-90
2022/06/18 05:58:20;;;;;;;;;;;;;;;22.68;54.21;101542.06;5049078;28;19917;-88
2022/06/18 06:00:45;;;;;;;;;;;;;;;22.76;54.04;101544.06;5054118;28;19920;-89
2022/06/18 06:03:11;;;;;;;;;;;;;;;22.87;53.63;101547.53;5055126;28;19990;-89
2022/06/18 06:05:36;;;;;;;;;;;;;;;23.02;52.78;101541.69;5053069;28;19967;-89
2022/06/18 06:08:01;;;;;;;;;;;;;;;23.12;52.78;101542.59;5049003;28;19925;-91
2022/06/18 06:13:12;;;;;;;;;;;;;;;23.42;52.68;101535.28;5052459;28;19966;-94
2022/06/18 06:15:38;;;;;;;;;;;;;;;23.63;53.64;101527.81;5054469;28;19905;-94
2022/06/18 06:18:04;;;;;;;;;;;;;;;23.83;52.66;101528.66;5054954;28;19928;-93
2022/06/18 06:20:31;;;;;;;;;;;;;;;24.05;51.56;101532.84;5054302;28;19905;-93
2022/06/18 06:22:57;;;;;;;;;;;;;;;24.25;50.75;101523.59;5047734;28;19921;-93
2022/06/18 06:25:22;;;;;;;;;;;;;;;24.42;50.10;101526.56;5052830;28;20293;-92
2022/06/18 06:27:47;;;;;;;;;;;;;;;24.50;50.45;101529.38;5058885;28;19917;-92
2022/06/18 06:30:13;;;;;;;;;;;;;;;24.58;50.08;101533.06;5059554;28;19928;-92
2022/06/18 06:32:39;;;;;;;;;;;;;;;24.71;49.49;101523.66;5061494;28;19916;-93
2022/06/18 06:35:04;;;;;;;;;;;;;;;24.79;48.97;101519.16;5056606;28;19916;-92
2022/06/18 06:37:29;;;;;;;;;;;;;;;24.86;48.56;101524.84;5060805;28;19917;-92
2022/06/18 06:39:55;;;;;;;;;;;;;;;24.95;48.53;101523.03;5055548;28;19942;-93
2022/06/18 06:42:20;;;;;;;;;;;;;;;25.07;47.96;101521.81;5050435;28;20287;-94
2022/06/18 06:44:46;;;;;;;;;;;;;;;25.08;47.30;101523.50;5057778;28;19908;-93
2022/06/18 06:47:11;;;;;;;;;;;;;;;25.07;47.46;101521.81;5061323;28;19939;-94
2022/06/18 06:49:36;;;;;;;;;;;;;;;25.23;47.95;101526.56;5064957;28;19939;-93
2022/06/18 06:52:02;;;;;;;;;;;;;;;25.45;47.28;101522.50;5060299;28;19916;-92
2022/06/18 06:54:27;;;;;;;;;;;;;;;25.64;47.28;101519.56;5049593;28;20063;-92
2022/06/18 06:59:37;;;;;;;;;;;;;;;25.92;45.97;101522.16;5048122;28;19924;-91
2022/06/18 07:02:02;;;;;;;;;;;;;;;26.02;46.23;101520.19;5058910;28;19924;-94
2022/06/18 07:04:27;;;;;;;;;;;;;;;26.16;45.43;101519.56;5073061;28;19967;-94
2022/06/18 07:06:56;;;;;;;;;;;;;;;26.25;45.43;101526.78;5056259;28;19988;-95
2022/06/18 07:09:21;;;;;;;;;;;;;;;26.39;45.30;101530.75;5058945;28;19916;-93
2022/06/18 07:11:46;;;;;;;;;;;;;;;26.50;45.78;101521.41;5054214;28;19917;-94
2022/06/18 07:14:11;;;;;;;;;;;;;;;26.56;45.42;101523.50;5062171;28;19917;-94
2022/06/18 07:16:47;;;;;;;;;;;;;;;26.75;45.63;101527.81;5065554;28;19920;-95
2022/06/18 07:19:12;;;;;;;;;;;;;;;26.88;44.74;101519.13;5067566;28;19935;-93
2022/06/18 07:21:38;;;;;;;;;;;;;;;26.88;44.99;101521.84;5062189;28;19929;-93
2022/06/18 07:24:03;;;;;;;;;;;;;;;26.95;45.03;101521.00;5066288;28;19958;-92
2022/06/18 07:26:28;;;;;;;;;;;;;;;27.10;44.40;101521.25;5061942;28;19916;-93
2022/06/18 07:28:53;;;;;;;;;;;;;;;27.29;44.88;101520.03;5069743;28;19940;-93
2022/06/18 07:31:27;;;;;;;;;;;;;;;27.51;44.07;101527.56;5071129;28;19935;-92
2022/06/18 07:33:52;;;;;;;;;;;;;;;27.68;43.74;101520.19;5069477;28;19928;-92
2022/06/18 07:36:19;;;;;;;;;;;;;;;27.84;43.98;101526.66;5057660;28;19915;-91
2022/06/18 07:38:45;;;;;;;;;;;;;;;28.16;43.40;101515.63;5057620;28;19913;-92
2022/06/18 07:41:11;;;;;;;;;;;;;;;28.39;42.34;101507.53;5060767;28;19970;-94
2022/06/18 07:43:40;;;;;;;;;;;;;;;28.71;42.30;101511.94;5053592;28;19963;-95
2022/06/18 07:46:15;;;;;;;;;;;;;;;29.15;41.87;101503.13;5064233;28;20400;-89
2022/06/18 07:48:42;;;;;;;;;;;;;;;29.54;40.46;101505.66;5061397;28;19928;-93
2022/06/18 07:51:08;;;;;;;;;;;;;;;29.78;40.55;101510.09;5060546;28;20022;-91
2022/06/18 07:53:33;;;;;;;;;;;;;;;30.17;40.01;101511.72;5058482;28;19917;-91
2022/06/18 07:55:58;;;;;;;;;;;;;;;30.38;39.35;101501.84;5058692;28;19914;-91
2022/06/18 07:58:26;;;;;;;;;;;;;;;30.66;38.97;101508.31;5057465;28;19927;-90
2022/06/18 08:00:51;;;;;;;;;;;;;;;30.84;37.48;101505.16;5058436;28;19948;-90
2022/06/18 08:03:17;;;;;;;;;;;;;;;31.05;38.12;101504.31;5056614;28;20372;-92
2022/06/18 08:05:43;;;;;;;;;;;;;;;31.54;38.17;101502.66;5057312;28;19927;-92
2022/06/18 08:08:09;;;;;;;;;;;;;;;32.09;35.66;101501.75;5060583;28;20000;-92
2022/06/18 08:10:36;;;;;;;;;;;;;;;32.46;36.34;101492.19;5064778;28;19905;-91
2022/06/18 08:13:01;;;;;;;;;;;;;;;32.80;35.68;101493.13;5063253;28;20015;-92
2022/06/18 08:15:26;;;;;;;;;;;;;;;33.03;34.80;101480.91;5046002;28;20057;-92
2022/06/18 08:17:52;;;;;;;;;;;;;;;33.33;34.32;101482.19;5037710;28;19913;-93
2022/06/18 08:20:17;;;;;;;;;;;;;;;33.55;33.93;101480.06;5039457;28;19921;-92
2022/06/18 08:22:44;;;;;;;;;;;;;;;33.60;33.90;101483.03;5055458;28;20332;-90
2022/06/18 08:25:10;;;;;;;;;;;;;;;33.75;33.86;101485.56;5059289;28;19920;-93
2022/06/18 08:27:36;;;;;;;;;;;;;;;33.99;32.53;101481.28;5058254;28;19913;-93
2022/06/18 08:30:02;;;;;;;;;;;;;;;34.14;33.59;101481.84;5059356;28;20050;-91
2022/06/18 08:32:27;;;;;;;;;;;;;;;34.56;32.61;101478.69;5072744;28;19912;-91
2022/06/18 08:34:52;;;;;;;;;;;;;;;35.01;30.46;101479.50;5054779;28;19921;-92
2022/06/18 08:37:17;;;;;;;;;;;;;;;35.23;31.63;101481.88;5057028;28;20137;-92
2022/06/18 08:39:43;;;;;;;;;;;;;;;35.50;30.53;101480.59;5059561;28;20012;-93
2022/06/18 08:42:22;;;;;;;;;;;;;;;35.78;31.25;101480.06;5058790;28;19975;-93
2022/06/18 08:45:05;;;;;;;;;;;;;;;36.27;30.66;101482.94;5056347;28;20340;-93
2022/06/18 08:47:49;;;;;;;;;;;;;;;36.65;30.77;101475.19;5058147;28;19916;-93
2022/06/18 08:50:20;;;;;;;;;;;;;;;36.73;29.74;101474.00;5058530;28;19939;-93
2022/06/18 08:52:51;;;;;;;;;;;;;;;36.83;28.70;101471.50;5058176;28;19955;-94
2022/06/18 08:55:29;;;;;;;;;;;;;;;36.77;28.00;101479.94;5055322;28;19939;-94
2022/06/18 08:58:13;;;;;;;;;;;;;;;37.03;29.02;101481.47;5057162;28;19959;-93
2022/06/18 09:00:55;;;;;;;;;;;;;;;37.23;28.92;101475.59;5057432;28;19924;-91
2022/06/18 09:03:26;;;;;;;;;;;;;;;37.67;26.99;101479.72;5058563;28;19951;-94
2022/06/18 09:05:52;;;;;;;;;;;;;;;37.88;27.35;101478.28;5043750;28;19924;-93
2022/06/18 09:08:35;;;;;;;;;;;;;;;38.10;27.51;101476.53;5044831;28;19913;-91
2022/06/18 09:11:12;;;;;;;;;;;;;;;38.36;27.57;101474.31;5054835;28;19966;-94
2022/06/18 09:13:43;;;;;;;;;;;;;;;38.62;26.21;101473.69;5056119;28;20016;-93
2022/06/18 09:16:12;;;;;;;;;;;;;;;38.94;26.88;101480.69;5055348;28;19917;-93
2022/06/18 09:18:45;;;;;;;;;;;;;;;39.26;26.35;101472.66;5052496;28;19928;-95
2022/06/18 09:21:24;;;;;;;;;;;;;;;39.52;25.63;101483.06;5057445;28;19974;-89
2022/06/18 09:23:52;;;;;;;;;;;;;;;39.71;23.54;101482.78;5042848;28;19917;-89
2022/06/18 09:26:22;;;;;;;;;;;;;;;39.93;25.14;101488.41;5049369;28;19924;-91
2022/06/18 09:29:01;;;;;;;;;;;;;;;40.09;25.36;101487.47;5051210;28;20165;-92
2022/06/18 09:31:38;;;;;;;;;;;;;;;40.40;24.95;101490.69;5051384;28;19948;-88
2022/06/18 09:34:14;;;;;;;;;;;;;;;40.58;23.27;101485.59;5067348;28;19917;-91
2022/06/18 09:36:41;;;;;;;;;;;;;;;40.73;25.38;101489.69;5053200;28;19946;-89
2022/06/18 09:39:11;;;;;;;;;;;;;;;41.04;24.50;101485.25;5063976;28;19985;-90
2022/06/18 09:41:47;;;;;;;;;;;;;;;41.26;22.56;101482.34;5065496;28;19953;-89
2022/06/18 09:44:23;;;;;;;;;;;;;;;41.25;22.21;101484.28;5068828;28;19993;-89
2022/06/18 09:46:51;;;;;;;;;;;;;;;41.00;24.26;101481.28;5055751;28;19912;-89
2022/06/18 09:49:16;;;;;;;;;;;;;;;41.40;22.97;101486.41;5055712;28;19948;-91
2022/06/18 09:51:46;;;;;;;;;;;;;;;41.62;23.59;101477.03;5060610;28;19915;-90
2022/06/18 09:54:13;;;;;;;;;;;;;;;41.94;23.78;101475.00;5058917;28;19928;-90
2022/06/18 09:56:43;;;;;;;;;;;;;;;42.38;22.51;101474.59;5062019;28;20278;-89
2022/06/18 09:59:21;;;;;;;;;;;;;;;42.49;23.02;101465.13;5061647;28;19980;-90
2022/06/18 10:01:49;;;;;;;;;;;;;;;42.80;22.35;101473.59;5066145;28;19979;-92
2022/06/18 10:07:03;;;;;;;;;;;;;;;43.43;22.19;101465.72;5066301;28;19934;-91
2022/06/18 10:09:43;;;;;;;;;;;;;;;43.73;22.23;101464.03;5070326;28;19915;-91
2022/06/18 10:12:30;;;;;;;;;;;;;;;44.16;21.66;101472.84;5060518;28;19913;-91
2022/06/18 10:14:57;;;;;;;;;;;;;;;44.04;21.37;101463.91;5053965;28;20037;-90
2022/06/18 10:17:38;;;;;;;;;;;;;;;44.17;20.68;101464.13;5041669;28;19925;-90
2022/06/18 10:20:22;;;;;;;;;;;;;;;44.41;18.81;101464.28;5052957;28;19920;-90
2022/06/18 10:23:05;;;;;;;;;;;;;;;44.63;21.08;101472.28;5055312;28;20027;-90
2022/06/18 10:25:42;;;;;;;;;;;;;;;44.95;20.69;101466.16;5053234;28;19943;-91
2022/06/18 10:28:10;;;;;;;;;;;;;;;45.31;18.56;101465.84;5052212;28;19931;-89
2022/06/18 10:30:38;;;;;;;;;;;;;;;45.20;20.33;101456.69;5051578;28;19956;-89
2022/06/18 10:33:26;;;;;;;;;;;;;;;45.33;20.54;101448.69;5044742;28;20007;-91
2022/06/18 10:35:59;;;;;;;;;;;;;;;45.73;18.51;101436.16;5052918;28;19932;-87
2022/06/18 10:38:27;;;;;;;;;;;;;;;45.72;19.15;101442.91;5049584;28;19944;-90
2022/06/18 10:40:55;;;;;;;;;;;;;;;45.64;18.89;101446.41;5043755;28;19959;-92
2022/06/18 10:43:33;;;;;;;;;;;;;;;45.61;19.75;101438.56;5051033;28;19916;-93
2022/06/18 10:46:00;;;;;;;;;;;;;;;45.78;19.78;101438.94;5048189;28;19912;-93
2022/06/18 10:48:28;;;;;;;;;;;;;;;46.16;19.13;101430.56;5034913;28;20263;-92
2022/06/18 10:50:55;;;;;;;;;;;;;;;46.29;18.96;101429.81;5046249;28;20301;-91
2022/06/18 10:53:22;;;;;;;;;;;;;;;46.27;19.07;101434.91;5051572;28;19928;-90
2022/06/18 10:55:58;;;;;;;;;;;;;;;46.32;18.95;101436.81;5064872;28;19909;-90
2022/06/18 10:58:23;;;;;;;;;;;;;;;46.34;18.76;101431.72;5053389;28;20040;-91
2022/06/18 11:00:56;;;;;;;;;;;;;;;46.55;17.56;101429.41;5046960;28;19959;-91
2022/06/18 11:03:25;;;;;;;;;;;;;;;46.65;18.60;101420.81;5060977;28;20294;-89
2022/06/18 11:05:50;;;;;;;;;;;;;;;46.88;18.65;101419.88;5066245;28;20012;-91
2022/06/18 11:08:20;;;;;;;;;;;;;;;47.21;17.51;101411.41;5071896;28;19932;-91
2022/06/18 11:10:53;;;;;;;;;;;;;;;47.21;17.61;101408.59;5074165;28;19913;-91
2022/06/18 11:13:21;;;;;;;;;;;;;;;46.92;17.46;101412.47;5063804;28;20485;-90
2022/06/18 11:15:46;;;;;;;;;;;;;;;46.99;16.61;101403.66;5034329;28;19964;-90
2022/06/18 11:18:22;;;;;;;;;;;;;;;46.92;16.60;101400.38;5033954;28;20338;-90
2022/06/18 11:20:54;;;;;;;;;;;;;;;46.91;17.49;101408.00;5034004;28;19987;-90
2022/06/18 11:23:20;;;;;;;;;;;;;;;46.88;16.95;101388.88;5038331;28;19913;-89
2022/06/18 11:25:50;;;;;;;;;;;;;;;46.87;17.67;101380.75;5045526;28;19921;-90
2022/06/18 11:28:19;;;;;;;;;;;;;;;47.03;17.27;101381.31;5034933;28;19999;-90
2022/06/18 11:30:46;;;;;;;;;;;;;;;47.08;16.70;101378.41;5046692;28;19917;-91
2022/06/18 11:33:32;;;;;;;;;;;;;;;47.11;16.70;101377.75;5035598;28;19970;-89
2022/06/18 11:36:05;;;;;;;;;;;;;;;47.27;16.94;101367.03;5035040;28;19963;-90
2022/06/18 11:38:32;;;;;;;;;;;;;;;47.78;16.96;101361.19;5052607;28;19913;-89
2022/06/18 11:41:02;;;;;;;;;;;;;;;48.38;16.97;101368.56;5052821;28;20377;-92
2022/06/18 11:43:46;;;;;;;;;;;;;;;48.63;14.72;101364.28;5045151;28;19920;-89
2022/06/18 11:46:15;;;;;;;;;;;;;;;48.09;16.22;101360.53;5032507;28;19917;-91
2022/06/18 11:48:48;;;;;;;;;;;;;;;48.33;16.49;101343.28;5045132;28;19913;-91
2022/06/18 11:51:13;;;;;;;;;;;;;;;48.98;16.04;101347.53;5047079;28;19983;-90
2022/06/18 11:53:56;;;;;;;;;;;;;;;49.17;15.91;101345.31;5041075;28;19917;-90
2022/06/18 11:56:28;;;;;;;;;;;;;;;49.26;14.89;101351.81;5052785;28;19924;-90
2022/06/18 11:59:29;;;;;;;;;;;;;;;48.94;15.22;101344.50;5051573;28;20308;-90
2022/06/18 12:01:58;;;;;;;;;;;;;;;49.26;15.86;101351.00;5005551;28;19960;-91
2022/06/18 12:04:35;;;;;;;;;;;;;;;49.24;15.00;101340.00;5005212;28;19921;-90
2022/06/18 12:07:18;;;;;;;;;;;;;;;49.12;15.37;101334.13;5008730;28;19924;-90
2022/06/18 12:09:43;;;;;;;;;;;;;;;49.41;15.51;101327.06;4998052;28;19918;-89
2022/06/18 12:12:12;;;;;;;;;;;;;;;49.53;14.93;101336.59;4997100;28;20013;-90
2022/06/18 12:14:57;;;;;;;;;;;;;;;49.36;15.19;101331.72;5008145;28;19924;-91
2022/06/18 12:17:38;;;;;;;;;;;;;;;49.53;14.79;101335.78;5009747;28;19964;-91
2022/06/18 12:20:09;;;;;;;;;;;;;;;49.91;15.38;101338.00;5002052;28;19922;-92
2022/06/18 12:22:37;;;;;;;;;;;;;;;50.30;14.40;101337.03;5006590;28;20008;-91
2022/06/18 12:25:20;;;;;;;;;;;;;;;50.64;14.51;101333.31;4995707;28;20458;-91
2022/06/18 12:27:54;;;;;;;;;;;;;;;50.92;14.49;101325.25;5008622;28;19961;-89
2022/06/18 12:30:31;;;;;;;;;;;;;;;50.69;14.11;101327.47;5009013;28;19921;-91
2022/06/18 12:33:01;;;;;;;;;;;;;;;50.55;14.48;101324.03;5007588;28;20350;-91
2022/06/18 12:35:33;;;;;;;;;;;;;;;50.68;13.98;101316.47;5022251;28;20066;-91
2022/06/18 12:38:17;;;;;;;;;;;;;;;50.63;14.46;101313.81;5053628;28;19925;-91
2022/06/18 12:40:57;;;;;;;;;;;;;;;50.81;13.85;101306.94;5032018;28;19932;-90
2022/06/18 12:43:28;;;;;;;;;;;;;;;50.66;14.71;101302.63;5034285;28;19917;-90
2022/06/18 12:46:02;;;;;;;;;;;;;;;50.10;14.83;101298.88;5031466;28;20013;-91
2022/06/18 12:48:37;;;;;;;;;;;;;;;49.38;14.49;101299.47;5044247;28;19928;-90
2022/06/18 12:51:08;;;;;;;;;;;;;;;48.52;15.53;101297.91;5040635;28;19966;-91
2022/06/18 12:53:51;;;;;;;;;;;;;;;48.04;15.83;101296.56;5049961;28;20015;-90
2022/06/18 12:56:16;;;;;;;;;;;;;;;47.24;16.07;101288.72;5049185;28;20242;-90
2022/06/18 12:58:48;;;;;;;;;;;;;;;46.80;16.91;101290.19;5050200;28;19928;-91